createdAt,value
2022-11-02T00:02:56.408Z,8.13
2022-11-02T00:06:00.709Z,5.15
2022-11-02T00:09:03.658Z,6.03
2022-11-02T00:12:07.625Z,4.30
2022-11-02T00:15:11.711Z,7.93
2022-11-02T00:18:16.434Z,7.40
2022-11-02T00:21:22.516Z,7.63
2022-11-02T00:24:25.452Z,7.07
2022-11-02T00:27:29.694Z,6.18
2022-11-02T00:30:32.812Z,8.52
2022-11-02T00:33:35.785Z,4.97
2022-11-02T00:36:40.083Z,6.93
2022-11-02T00:39:42.884Z,6.78
2022-11-02T00:42:45.709Z,6.32
2022-11-02T00:45:48.622Z,4.43
2022-11-02T00:48:51.981Z,5.90
2022-11-02T00:51:56.327Z,5.72
2022-11-02T00:54:59.907Z,5.15
2022-11-02T00:58:03.340Z,6.90
2022-11-02T01:01:06.732Z,5.22
2022-11-02T01:04:09.601Z,5.30
2022-11-02T01:07:13.835Z,4.60
2022-11-02T01:10:17.761Z,5.03
2022-11-02T01:13:21.879Z,5.15
2022-11-02T01:16:24.855Z,7.13
2022-11-02T01:19:27.913Z,4.07
2022-11-02T01:22:34.163Z,4.47
2022-11-02T01:25:37.061Z,4.85
2022-11-02T01:28:40.320Z,8.23
2022-11-02T01:31:43.141Z,5.35
2022-11-02T01:34:45.972Z,3.53
2022-11-02T01:37:50.190Z,4.40
2022-11-02T01:40:52.968Z,3.55
2022-11-02T01:43:56.805Z,5.00
2022-11-02T01:47:04.257Z,4.00
2022-11-02T01:50:11.221Z,5.13
2022-11-02T01:53:15.524Z,3.92
2022-11-02T01:59:33.551Z,4.75
2022-11-02T02:02:39.869Z,6.63
2022-11-02T02:05:44.919Z,5.15
2022-11-02T02:08:57.625Z,4.80
2022-11-02T02:12:04.457Z,4.90
2022-11-02T02:15:08.600Z,4.68
2022-11-02T02:18:18.989Z,4.63
2022-11-02T02:21:43.204Z,5.20
2022-11-02T02:24:52.891Z,5.72
2022-11-02T02:28:13.756Z,3.75
2022-11-02T02:31:23.870Z,4.60
2022-11-02T02:34:35.003Z,4.35
2022-11-02T02:37:42.471Z,4.47
2022-11-02T02:40:50.891Z,6.28
2022-11-02T02:43:57.185Z,4.25
2022-11-02T02:47:05.702Z,7.35
2022-11-02T02:50:15.591Z,5.93
2022-11-02T02:53:22.547Z,5.07
2022-11-02T02:56:29.231Z,6.18
2022-11-02T02:59:37.642Z,6.47
2022-11-02T03:02:41.137Z,5.85
2022-11-02T03:05:44.661Z,4.47
2022-11-02T03:08:57.776Z,6.60
2022-11-02T03:12:14.085Z,5.78
2022-11-02T03:15:23.819Z,3.67
2022-11-02T03:18:37.706Z,5.75
2022-11-02T03:21:42.877Z,3.80
2022-11-02T03:24:51.789Z,4.13
2022-11-02T03:27:58.366Z,6.10
2022-11-02T03:31:11.340Z,5.05
2022-11-02T03:34:24.011Z,5.43
2022-11-02T03:37:32.129Z,5.18
2022-11-02T03:40:40.849Z,4.35
2022-11-02T03:43:45.777Z,5.20
2022-11-02T03:46:53.444Z,4.18
2022-11-02T03:49:57.716Z,4.38
2022-11-02T03:53:07.577Z,3.53
2022-11-02T03:56:16.671Z,6.20
2022-11-02T03:59:19.553Z,4.82
2022-11-02T04:02:24.849Z,3.83
2022-11-02T04:05:33.616Z,5.00
2022-11-02T04:08:44.188Z,5.43
2022-11-02T04:12:04.855Z,3.60
2022-11-02T04:15:10.904Z,3.55
2022-11-02T04:18:32.550Z,3.70
2022-11-02T04:21:35.457Z,6.60
2022-11-02T04:24:58.674Z,4.25
2022-11-02T04:28:09.400Z,4.88
2022-11-02T04:31:25.251Z,3.92
2022-11-02T04:34:29.380Z,3.38
2022-11-02T04:37:49.671Z,3.60
2022-11-02T04:41:12.803Z,3.05
2022-11-02T04:44:17.039Z,7.45
2022-11-02T04:47:26.015Z,4.78
2022-11-02T04:50:31.027Z,3.20
2022-11-02T04:53:38.423Z,4.50
2022-11-02T04:56:42.370Z,3.45
2022-11-02T04:59:45.585Z,3.75
2022-11-02T05:02:49.497Z,4.10
2022-11-02T05:05:56.555Z,4.35
2022-11-02T05:09:00.280Z,4.25
2022-11-02T05:12:05.100Z,4.45
2022-11-02T05:15:10.000Z,4.10
2022-11-02T05:18:18.470Z,4.85
2022-11-02T05:21:23.185Z,4.65
2022-11-02T05:24:26.960Z,5.18
2022-11-02T05:27:29.929Z,4.15
2022-11-02T05:30:32.966Z,4.45
2022-11-02T05:33:36.496Z,3.17
2022-11-02T05:36:47.715Z,4.85
2022-11-02T05:39:51.264Z,4.07
2022-11-02T05:43:00.194Z,4.30
2022-11-02T05:46:04.758Z,3.38
2022-11-02T05:49:07.500Z,4.43
2022-11-02T05:52:11.729Z,4.28
2022-11-02T05:55:14.746Z,3.90
2022-11-02T05:58:17.663Z,5.35
2022-11-02T06:01:21.316Z,4.18
2022-11-02T06:04:24.255Z,3.70
2022-11-02T06:07:28.549Z,4.18
2022-11-02T06:10:31.993Z,4.07
2022-11-02T06:13:35.385Z,5.63
2022-11-02T06:16:38.269Z,3.35
2022-11-02T06:19:41.044Z,4.32
2022-11-02T06:22:45.623Z,3.22
2022-11-02T06:25:52.748Z,3.97
2022-11-02T06:28:55.635Z,3.05
2022-11-02T06:31:58.458Z,3.03
2022-11-02T06:35:01.295Z,2.92
2022-11-02T06:38:05.496Z,2.75
2022-11-02T06:41:08.337Z,2.90
2022-11-02T06:44:13.670Z,3.15
2022-11-02T06:47:16.473Z,2.55
2022-11-02T06:50:19.371Z,4.05
2022-11-02T06:53:23.549Z,3.28
2022-11-02T06:56:26.444Z,3.78
2022-11-02T06:59:29.221Z,3.25
2022-11-02T07:02:32.531Z,2.67
2022-11-02T07:05:36.054Z,3.38
2022-11-02T07:08:40.222Z,3.45
2022-11-02T07:11:43.012Z,3.25
2022-11-02T07:14:45.789Z,4.03
2022-11-02T07:17:48.860Z,3.50
2022-11-02T07:20:52.008Z,5.47
2022-11-02T07:23:56.146Z,2.90
2022-11-02T07:26:58.982Z,3.13
2022-11-02T07:30:01.797Z,3.28
2022-11-02T07:33:05.074Z,2.92
2022-11-02T07:36:08.573Z,2.63
2022-11-02T07:39:12.855Z,2.75
2022-11-02T07:42:15.676Z,2.42
2022-11-02T07:45:22.004Z,3.28
2022-11-02T07:48:24.887Z,3.90
2022-11-02T07:51:27.774Z,2.72
2022-11-02T07:54:32.025Z,3.47
2022-11-02T07:57:34.844Z,3.45
2022-11-02T08:00:39.327Z,4.00
2022-11-02T08:03:42.186Z,20.38
2022-11-02T08:06:45.087Z,15.48
2022-11-02T08:09:49.345Z,12.73
2022-11-02T08:12:52.267Z,10.15
2022-11-02T08:15:55.768Z,15.10
2022-11-02T08:18:59.269Z,15.68
2022-11-02T08:22:02.061Z,10.05
2022-11-02T08:25:08.190Z,12.00
2022-11-02T08:28:14.512Z,11.10
2022-11-02T08:31:18.411Z,8.25
2022-11-02T08:34:21.286Z,8.68
2022-11-02T08:37:24.229Z,7.10
2022-11-02T08:40:28.648Z,8.18
2022-11-02T08:43:31.710Z,5.00
2022-11-02T08:46:34.586Z,8.05
2022-11-02T08:49:37.412Z,7.90
2022-11-02T08:52:40.876Z,5.88
2022-11-02T08:55:45.363Z,8.05
2022-11-02T08:58:48.175Z,4.97
2022-11-02T09:01:51.151Z,4.93
2022-11-02T09:04:54.069Z,6.20
2022-11-02T09:07:59.005Z,8.02
2022-11-02T09:11:04.667Z,6.75
2022-11-02T09:14:08.232Z,6.22
2022-11-02T09:17:11.292Z,7.97
2022-11-02T09:20:14.185Z,4.90
2022-11-02T09:23:17.969Z,7.90
2022-11-02T09:26:22.158Z,8.15
2022-11-02T09:29:24.991Z,8.80
2022-11-02T09:32:28.206Z,8.70
2022-11-02T09:35:33.001Z,7.35
2022-11-02T09:38:36.076Z,7.63
2022-11-02T09:41:44.555Z,16.75
2022-11-02T09:44:52.044Z,7.15
2022-11-02T09:48:18.844Z,6.97
2022-11-02T09:51:27.796Z,4.75
2022-11-02T09:54:35.641Z,18.02
2022-11-02T09:57:43.566Z,18.15
2022-11-02T10:00:51.621Z,12.10
2022-11-02T10:04:12.275Z,17.83
2022-11-02T10:07:27.349Z,22.20
2022-11-02T10:10:35.615Z,23.42
2022-11-02T10:13:43.905Z,14.48
2022-11-02T10:16:53.458Z,13.23
2022-11-02T10:19:57.828Z,14.20
2022-11-02T10:23:07.315Z,17.00
2022-11-02T10:26:19.037Z,12.25
2022-11-02T10:29:35.131Z,14.25
2022-11-02T10:32:40.824Z,20.98
2022-11-02T10:39:26.328Z,12.40
2022-11-02T10:42:44.590Z,7.80
2022-11-02T10:46:09.180Z,15.52
2022-11-02T10:49:19.591Z,12.38
2022-11-02T10:52:22.871Z,9.95
2022-11-02T10:55:30.732Z,8.32
2022-11-02T10:58:34.787Z,9.90
2022-11-02T11:01:39.619Z,11.50
2022-11-02T11:04:43.365Z,11.85
2022-11-02T11:07:47.328Z,8.85
2022-11-02T11:10:50.149Z,7.60
2022-11-02T11:20:55.830Z,14.23
2022-11-02T11:24:20.435Z,7.97
2022-11-02T11:27:24.006Z,5.93
2022-11-02T11:30:54.149Z,5.65
2022-11-02T11:33:54.985Z,6.80
2022-11-02T11:37:07.180Z,7.05
2022-11-02T11:40:22.553Z,11.18
2022-11-02T11:43:28.041Z,7.05
2022-11-02T11:46:41.534Z,12.63
2022-11-02T11:53:20.738Z,6.20
2022-11-02T11:56:27.098Z,6.63
2022-11-02T11:59:33.418Z,6.03
2022-11-02T12:02:43.803Z,6.85
2022-11-02T12:06:03.594Z,6.60
2022-11-02T12:09:18.465Z,5.70
2022-11-02T12:12:30.185Z,3.97
2022-11-02T12:15:47.793Z,5.90
2022-11-02T12:19:06.772Z,7.15
2022-11-02T12:22:23.529Z,5.32
2022-11-02T12:25:37.765Z,6.55
2022-11-02T12:28:45.993Z,6.78
2022-11-02T12:32:01.026Z,8.55
2022-11-02T12:35:28.867Z,7.75
2022-11-02T12:38:47.770Z,4.63
2022-11-02T12:42:16.434Z,5.75
2022-11-02T12:45:26.423Z,6.63
2022-11-02T12:48:39.387Z,6.40
2022-11-02T12:51:49.590Z,7.88
2022-11-02T12:54:58.143Z,10.20
2022-11-02T12:58:06.523Z,8.02
2022-11-02T13:01:16.640Z,7.82
2022-11-02T13:04:27.910Z,8.13
2022-11-02T13:07:38.354Z,7.13
2022-11-02T13:10:49.408Z,7.20
2022-11-02T13:13:59.737Z,5.85
2022-11-02T13:17:07.848Z,5.30
2022-11-02T13:20:17.853Z,7.15
2022-11-02T13:26:42.392Z,12.90
2022-11-02T13:29:50.728Z,11.95
2022-11-02T13:32:59.785Z,15.77
2022-11-02T13:36:02.648Z,12.18
2022-11-02T13:39:13.918Z,24.60
2022-11-02T13:42:48.393Z,12.75
2022-11-02T13:46:16.419Z,9.85
2022-11-02T13:49:25.915Z,9.50
2022-11-02T13:52:38.825Z,13.75
2022-11-02T13:55:45.948Z,14.15
2022-11-02T13:58:56.844Z,7.10
2022-11-02T14:02:02.828Z,9.80
2022-11-02T14:05:06.460Z,11.65
2022-11-02T14:08:17.418Z,6.22
2022-11-02T14:11:33.951Z,6.82
2022-11-02T14:14:38.206Z,8.73
2022-11-02T14:18:03.901Z,6.88
2022-11-02T14:21:46.044Z,10.15
2022-11-02T14:25:05.934Z,9.57
2022-11-02T14:28:32.874Z,8.95
2022-11-02T14:31:57.128Z,9.73
2022-11-02T14:35:14.484Z,5.75
2022-11-02T14:38:41.902Z,8.38
2022-11-02T14:42:13.762Z,14.43
2022-11-02T14:45:31.935Z,7.00
2022-11-02T14:48:47.620Z,7.90
2022-11-02T14:52:03.595Z,5.88
2022-11-02T14:55:10.653Z,5.00
2022-11-02T14:58:20.159Z,7.40
2022-11-02T15:01:23.677Z,4.97
2022-11-02T15:04:29.179Z,4.53
2022-11-02T15:07:36.775Z,5.43
2022-11-02T15:10:45.728Z,12.13
2022-11-02T15:13:48.934Z,9.15
2022-11-02T15:16:52.840Z,4.35
2022-11-02T15:20:27.508Z,4.43
2022-11-02T15:23:32.342Z,3.75
2022-11-02T15:26:43.282Z,4.30
2022-11-02T15:29:47.034Z,3.85
2022-11-02T15:32:58.902Z,3.35
2022-11-02T15:36:08.601Z,5.85
2022-11-02T15:39:13.534Z,5.82
2022-11-02T15:42:25.306Z,4.28
2022-11-02T15:45:49.374Z,4.28
2022-11-02T15:49:02.588Z,5.65
2022-11-02T15:52:18.719Z,6.80
2022-11-02T15:55:29.358Z,5.68
2022-11-02T15:58:45.272Z,6.00
2022-11-02T16:02:03.031Z,3.38
2022-11-02T16:05:07.197Z,4.40
2022-11-02T16:08:23.238Z,3.47
2022-11-02T16:11:26.445Z,5.65
2022-11-02T16:14:32.283Z,3.15
2022-11-02T16:17:35.058Z,4.55
2022-11-02T16:20:40.659Z,3.30
2022-11-02T16:23:59.390Z,4.55
2022-11-02T16:27:02.191Z,5.55
2022-11-02T16:30:05.451Z,3.67
2022-11-02T16:33:11.530Z,2.88
2022-11-02T16:36:17.947Z,2.97
2022-11-02T16:39:25.938Z,3.53
2022-11-02T16:42:29.021Z,5.43
2022-11-02T16:45:40.197Z,4.05
2022-11-02T16:49:03.584Z,3.40
2022-11-02T16:52:19.861Z,3.63
2022-11-02T16:55:41.656Z,5.38
2022-11-02T16:58:49.548Z,2.78
2022-11-02T17:01:58.422Z,3.28
2022-11-02T17:05:06.015Z,4.03
2022-11-02T17:08:27.072Z,3.53
2022-11-02T17:11:33.231Z,3.65
2022-11-02T17:14:36.205Z,4.35
2022-11-02T17:17:40.884Z,3.45
2022-11-02T17:20:43.830Z,4.65
2022-11-02T17:23:48.139Z,4.35
2022-11-02T17:27:19.653Z,3.67
2022-11-02T17:30:45.625Z,5.15
2022-11-02T17:33:49.243Z,4.88
2022-11-02T17:36:52.343Z,5.63
2022-11-02T17:39:56.236Z,4.78
2022-11-02T17:43:00.856Z,6.80
2022-11-02T17:46:03.652Z,6.38
2022-11-02T17:49:06.428Z,6.07
2022-11-02T17:52:13.631Z,7.25
2022-11-02T17:55:18.687Z,3.80
2022-11-02T17:58:22.822Z,3.47
2022-11-02T18:01:25.776Z,3.05
2022-11-02T18:04:28.698Z,3.90
2022-11-02T18:07:31.571Z,4.60
2022-11-02T18:10:37.850Z,5.45
2022-11-02T18:13:41.984Z,6.15
2022-11-02T18:16:45.552Z,6.05
2022-11-02T18:19:48.341Z,5.97
2022-11-02T18:22:51.477Z,5.85
2022-11-02T18:25:56.769Z,6.30
2022-11-02T18:29:04.536Z,6.88
2022-11-02T18:32:07.445Z,5.05
2022-11-02T18:35:12.387Z,6.47
2022-11-02T18:38:15.181Z,5.75
2022-11-02T18:41:30.869Z,4.68
2022-11-02T18:44:35.065Z,5.43
2022-11-02T18:47:38.599Z,7.40
2022-11-02T18:50:41.359Z,5.13
2022-11-02T18:53:44.367Z,7.88
2022-11-02T18:56:47.250Z,7.70
2022-11-02T18:59:51.381Z,8.77
2022-11-02T19:02:54.269Z,7.20
2022-11-02T19:06:15.256Z,8.10
2022-11-02T19:09:20.638Z,5.93
2022-11-02T19:12:25.605Z,6.07
2022-11-02T19:15:29.731Z,6.63
2022-11-02T19:18:32.512Z,5.05
2022-11-02T19:21:35.409Z,5.53
2022-11-02T19:24:38.277Z,5.68
2022-11-02T19:27:41.102Z,7.10
2022-11-02T19:30:45.414Z,6.30
2022-11-02T19:33:48.285Z,5.32
2022-11-02T19:36:51.286Z,6.50
2022-11-02T19:39:55.010Z,4.63
2022-11-02T19:42:57.788Z,7.53
2022-11-02T19:46:02.836Z,7.97
2022-11-02T19:49:05.633Z,6.38
2022-11-02T19:52:08.442Z,7.10
2022-11-02T19:55:11.199Z,5.30
2022-11-02T19:58:14.732Z,7.78
2022-11-02T20:01:20.451Z,8.27
2022-11-02T20:04:23.294Z,6.53
2022-11-02T20:07:26.107Z,7.53
2022-11-02T20:10:28.889Z,8.32
2022-11-02T20:13:33.540Z,7.82
2022-11-02T20:16:37.721Z,9.40
2022-11-02T20:19:40.505Z,7.97
2022-11-02T20:22:43.299Z,9.70
2022-11-02T20:25:46.166Z,9.55
2022-11-02T20:28:49.781Z,10.38
2022-11-02T20:31:54.042Z,8.88
2022-11-02T20:34:57.108Z,10.55
2022-11-02T20:38:00.576Z,11.07
2022-11-02T20:41:07.970Z,7.95
2022-11-02T20:44:10.868Z,7.10
2022-11-02T20:47:15.019Z,8.85
2022-11-02T20:50:20.479Z,8.80
2022-11-02T20:53:26.317Z,9.70
2022-11-02T20:56:29.179Z,9.38
2022-11-02T20:59:32.029Z,10.57
2022-11-02T21:02:36.275Z,11.73
2022-11-02T21:05:39.181Z,13.35
2022-11-02T21:08:43.077Z,12.35
2022-11-02T21:12:03.226Z,11.02
2022-11-02T21:15:07.213Z,11.68
2022-11-02T21:18:11.679Z,10.32
2022-11-02T21:21:16.817Z,11.82
2022-11-02T21:24:19.624Z,10.18
2022-11-02T21:27:22.468Z,12.52
2022-11-02T21:30:25.373Z,10.88
2022-11-02T21:33:29.544Z,10.77
2022-11-02T21:36:32.380Z,10.65
2022-11-02T21:39:35.830Z,9.32
2022-11-02T21:42:38.853Z,11.20
2022-11-02T21:45:50.447Z,10.82
2022-11-02T21:48:56.229Z,12.93
2022-11-02T21:51:59.066Z,13.45
2022-11-02T21:55:01.863Z,11.90
2022-11-02T21:58:04.671Z,14.13
2022-11-02T22:01:29.296Z,13.02
2022-11-02T22:04:33.552Z,10.25
2022-11-02T22:07:56.824Z,12.48
2022-11-02T22:11:00.174Z,10.80
2022-11-02T22:14:03.744Z,11.05
2022-11-02T22:17:16.256Z,9.80
2022-11-02T22:20:26.510Z,11.93
2022-11-02T22:23:29.333Z,10.63
2022-11-02T22:26:33.331Z,11.32
2022-11-02T22:29:36.263Z,9.93
2022-11-02T22:32:39.038Z,11.18
2022-11-02T22:35:43.176Z,11.98
2022-11-02T22:38:54.910Z,10.38
2022-11-02T22:41:57.952Z,9.57
2022-11-02T22:45:00.902Z,9.73
2022-11-02T22:48:03.722Z,9.43
2022-11-02T22:51:08.517Z,9.85
2022-11-02T22:54:15.386Z,9.27
2022-11-02T22:57:18.167Z,9.13
2022-11-02T23:00:22.246Z,8.20
2022-11-02T23:03:25.239Z,8.90
2022-11-02T23:06:30.215Z,8.55
2022-11-02T23:09:32.980Z,8.70
2022-11-02T23:12:40.024Z,9.50
2022-11-02T23:15:42.807Z,9.90
2022-11-02T23:19:03.350Z,9.85
2022-11-02T23:22:26.649Z,9.88
2022-11-02T23:25:29.477Z,8.95
2022-11-02T23:28:49.787Z,8.60
2022-11-02T23:32:09.985Z,7.85
2022-11-02T23:35:30.412Z,9.00
2022-11-02T23:38:48.554Z,7.60
2022-11-02T23:41:51.367Z,8.60
2022-11-02T23:44:54.252Z,6.72
2022-11-02T23:48:01.229Z,7.85
2022-11-02T23:51:22.291Z,8.93
2022-11-02T23:54:44.125Z,8.85
2022-11-02T23:57:46.951Z,8.05
